<?xml version='1.0' encoding='UTF-8'?>
<gpx xmlns="http://www.topografix.com/GPX/1/1" creator="www.balnam.be" version="1.1" xmlns:xsi="http://www.w3.org/2001/XMLSchema-instance" xsi:schemaLocation="http://www.topografix.com/GPX/1/1 http://www.topografix.com/GPX/1/1/gpx.xsd">
<trk>
<name>xdvhf46</name>
<cmt>q</cmt>
<desc>Haut-Fays Chemin n°46 Chemin du Lavoir</desc>
<link href="https://chemins.be/hautfays/chemin/46"/><trkseg>
<trkpt lat="50.012717" lon="5.034753"><time>2026-05-04T01:21:52Z</time></trkpt>
<trkpt lat="50.012231" lon="5.034919"><time>2026-05-04T01:31:52Z</time></trkpt>
<trkpt lat="50.010575" lon="5.035483"><time>2026-05-04T01:41:52Z</time></trkpt>
</trkseg></trk>
<trk>
<name>xdvhf46</name>
<cmt>v</cmt>
<desc>Haut-Fays Chemin n°46 Chemin du Lavoir</desc>
<link href="https://chemins.be/hautfays/chemin/46"/><trkseg>
<trkpt lat="50.010575" lon="5.035483"><time>2026-05-04T01:41:52Z</time></trkpt>
<trkpt lat="50.008792" lon="5.038816"><time>2026-05-04T01:51:52Z</time></trkpt>
<trkpt lat="50.008470" lon="5.039173"><time>2026-05-04T02:01:52Z</time></trkpt>
<trkpt lat="50.008205" lon="5.039366"><time>2026-05-04T02:11:52Z</time></trkpt>
<trkpt lat="50.007181" lon="5.040123"><time>2026-05-04T02:21:52Z</time></trkpt>
<trkpt lat="50.006957" lon="5.040272"><time>2026-05-04T02:31:52Z</time></trkpt>
<trkpt lat="50.006301" lon="5.040686"><time>2026-05-04T02:41:52Z</time></trkpt>
<trkpt lat="50.005677" lon="5.041013"><time>2026-05-04T02:51:52Z</time></trkpt>
<trkpt lat="50.005112" lon="5.041298"><time>2026-05-04T03:01:52Z</time></trkpt>
<trkpt lat="50.004805" lon="5.041479"><time>2026-05-04T03:11:52Z</time></trkpt>
<trkpt lat="50.004488" lon="5.041705"><time>2026-05-04T03:21:52Z</time></trkpt>
<trkpt lat="50.004133" lon="5.042022"><time>2026-05-04T03:31:52Z</time></trkpt>
<trkpt lat="50.003433" lon="5.042606"><time>2026-05-04T03:41:52Z</time></trkpt>
<trkpt lat="50.003205" lon="5.042804"><time>2026-05-04T03:51:52Z</time></trkpt>
<trkpt lat="50.002881" lon="5.042998"><time>2026-05-04T04:01:52Z</time></trkpt>
<trkpt lat="50.002654" lon="5.043089"><time>2026-05-04T04:11:52Z</time></trkpt>
<trkpt lat="50.002354" lon="5.043159"><time>2026-05-04T04:21:52Z</time></trkpt>
<trkpt lat="50.002150" lon="5.043234"><time>2026-05-04T04:31:52Z</time></trkpt>
<trkpt lat="50.001706" lon="5.043496"><time>2026-05-04T04:41:52Z</time></trkpt>
<trkpt lat="50.001502" lon="5.043642"><time>2026-05-04T04:51:52Z</time></trkpt>
<trkpt lat="50.001330" lon="5.043846"><time>2026-05-04T05:01:52Z</time></trkpt>
<trkpt lat="50.000843" lon="5.044522"><time>2026-05-04T05:11:52Z</time></trkpt>
</trkseg>
</trk>
</gpx>